createdAt,value
2023-01-10T00:00:12.258Z,12.32
2023-01-10T00:03:03.476Z,11.80
2023-01-10T00:05:33.072Z,10.82
2023-01-10T00:08:03.626Z,11.23
2023-01-10T00:10:33.895Z,11.25
2023-01-10T00:13:21.212Z,10.65
2023-01-10T00:15:50.522Z,10.98
2023-01-10T00:18:21.905Z,11.45
2023-01-10T00:20:51.453Z,11.60
2023-01-10T00:23:24.595Z,11.00
2023-01-10T00:25:53.878Z,10.13
2023-01-10T00:28:23.935Z,11.15
2023-01-10T00:31:00.851Z,10.70
2023-01-10T00:33:32.187Z,9.48
2023-01-10T00:36:02.136Z,9.95
2023-01-10T00:38:33.002Z,10.02
2023-01-10T00:41:02.165Z,10.98
2023-01-10T00:43:48.826Z,9.93
2023-01-10T00:46:18.096Z,11.00
2023-01-10T00:48:49.123Z,10.38
2023-01-10T00:51:18.386Z,9.93
2023-01-10T00:53:47.910Z,11.27
2023-01-10T00:56:17.364Z,10.57
2023-01-10T00:58:46.857Z,10.15
2023-01-10T01:01:16.251Z,10.77
2023-01-10T01:03:45.765Z,10.80
2023-01-10T01:06:16.304Z,12.30
2023-01-10T01:08:45.875Z,15.13
2023-01-10T01:11:15.189Z,15.13
2023-01-10T01:13:44.655Z,14.63
2023-01-10T01:16:14.005Z,14.18
2023-01-10T01:18:43.619Z,14.15
2023-01-10T01:21:12.882Z,12.95
2023-01-10T01:23:43.792Z,13.75
2023-01-10T01:26:12.964Z,13.18
2023-01-10T01:28:42.521Z,12.73
2023-01-10T01:31:12.009Z,12.00
2023-01-10T01:33:41.744Z,12.85
2023-01-10T01:36:12.659Z,13.18
2023-01-10T01:38:43.875Z,12.50
2023-01-10T01:41:35.168Z,12.43
2023-01-10T01:44:07.230Z,10.98
2023-01-10T01:46:39.672Z,12.10
2023-01-10T01:49:17.802Z,10.88
2023-01-10T01:51:50.427Z,10.75
2023-01-10T01:54:21.898Z,10.60
2023-01-10T01:56:57.107Z,11.40
2023-01-10T01:59:30.006Z,14.45
2023-01-10T02:02:04.133Z,13.23
2023-01-10T02:04:40.246Z,13.35
2023-01-10T02:07:10.289Z,16.92
2023-01-10T02:09:46.953Z,13.57
2023-01-10T02:12:17.213Z,16.88
2023-01-10T02:14:49.470Z,16.20
2023-01-10T02:17:18.795Z,15.02
2023-01-10T02:19:54.252Z,14.70
2023-01-10T02:22:50.399Z,14.68
2023-01-10T02:25:47.026Z,13.88
2023-01-10T02:29:00.031Z,14.25
2023-01-10T02:32:10.807Z,14.90
2023-01-10T02:34:55.732Z,13.63
2023-01-10T02:37:33.380Z,13.83
2023-01-10T02:40:09.140Z,14.63
2023-01-10T02:42:44.650Z,12.20
2023-01-10T02:45:18.822Z,11.75
2023-01-10T02:47:48.353Z,12.13
2023-01-10T02:50:40.273Z,14.50
2023-01-10T02:53:15.064Z,15.27
2023-01-10T02:56:00.532Z,13.30
2023-01-10T02:58:41.739Z,13.25
2023-01-10T03:01:19.893Z,12.40
2023-01-10T03:03:57.943Z,11.88
2023-01-10T03:06:41.214Z,13.18
2023-01-10T03:09:22.312Z,12.93
2023-01-10T03:11:55.006Z,13.88
2023-01-10T03:14:28.505Z,12.68
2023-01-10T03:17:03.388Z,10.18
2023-01-10T03:19:40.510Z,8.73
2023-01-10T03:22:13.024Z,11.93
2023-01-10T03:24:46.710Z,11.63
2023-01-10T03:27:24.063Z,10.60
2023-01-10T03:30:01.225Z,10.57
2023-01-10T03:33:58.830Z,10.20
2023-01-10T03:36:33.348Z,10.20
2023-01-10T03:39:13.866Z,11.30
2023-01-10T03:41:49.894Z,10.18
2023-01-10T03:44:40.687Z,10.18
2023-01-10T03:47:13.046Z,11.02
2023-01-10T03:49:45.455Z,9.77
2023-01-10T03:52:18.125Z,9.75
2023-01-10T03:54:49.290Z,10.90
2023-01-10T03:57:20.720Z,10.43
2023-01-10T03:59:53.276Z,10.63
2023-01-10T04:02:22.868Z,11.50
2023-01-10T04:04:52.086Z,13.52
2023-01-10T04:07:21.792Z,11.05
2023-01-10T04:09:52.863Z,11.38
2023-01-10T04:12:22.397Z,11.77
2023-01-10T04:14:51.551Z,10.38
2023-01-10T04:17:21.030Z,11.68
2023-01-10T04:19:50.231Z,9.73
2023-01-10T04:22:19.877Z,10.68
2023-01-10T04:24:51.399Z,11.45
2023-01-10T04:27:22.629Z,11.52
2023-01-10T04:29:51.733Z,10.50
2023-01-10T04:32:21.237Z,11.13
2023-01-10T04:34:50.545Z,11.52
2023-01-10T04:37:20.004Z,10.25
2023-01-10T04:39:49.123Z,10.57
2023-01-10T04:42:18.930Z,9.70
2023-01-10T04:44:49.665Z,11.63
2023-01-10T04:47:19.136Z,11.55
2023-01-10T04:49:48.234Z,11.93
2023-01-10T04:52:17.756Z,11.23
2023-01-10T04:54:46.871Z,10.25
2023-01-10T04:57:16.339Z,10.50
2023-01-10T04:59:45.605Z,11.38
2023-01-10T05:02:17.629Z,10.70
2023-01-10T05:04:47.037Z,9.82
2023-01-10T05:07:16.858Z,10.13
2023-01-10T05:09:45.984Z,10.65
2023-01-10T05:12:15.409Z,10.30
2023-01-10T05:14:44.606Z,10.63
2023-01-10T05:17:15.394Z,11.77
2023-01-10T05:19:44.547Z,11.05
2023-01-10T05:22:14.048Z,16.90
2023-01-10T05:24:43.283Z,17.80
2023-01-10T05:27:12.708Z,19.75
2023-01-10T05:29:41.841Z,22.08
2023-01-10T05:32:11.574Z,11.25
2023-01-10T05:34:42.267Z,14.45
2023-01-10T05:37:11.669Z,16.15
2023-01-10T05:39:41.534Z,12.50
2023-01-10T05:42:10.941Z,16.60
2023-01-10T05:44:40.033Z,15.45
2023-01-10T05:47:09.539Z,16.63
2023-01-10T05:49:38.754Z,13.98
2023-01-10T05:52:09.505Z,13.70
2023-01-10T05:54:38.672Z,13.52
2023-01-10T05:57:08.148Z,12.25
2023-01-10T05:59:37.455Z,12.52
2023-01-10T06:02:07.132Z,10.02
2023-01-10T06:04:36.283Z,10.98
2023-01-10T06:07:05.711Z,10.32
2023-01-10T06:09:36.329Z,11.10
2023-01-10T06:12:06.149Z,10.35
2023-01-10T06:14:35.212Z,10.55
2023-01-10T06:17:08.975Z,7.88
2023-01-10T06:19:38.275Z,8.30
2023-01-10T06:22:07.949Z,8.43
2023-01-10T06:24:38.462Z,7.72
2023-01-10T06:27:07.917Z,7.97
2023-01-10T06:29:37.112Z,8.73
2023-01-10T06:32:06.584Z,9.05
2023-01-10T06:34:35.741Z,9.02
2023-01-10T06:37:05.326Z,15.15
2023-01-10T06:39:34.709Z,46.45
2023-01-10T06:42:05.575Z,42.85
2023-01-10T06:44:34.751Z,67.50
2023-01-10T06:47:04.244Z,26.17
2023-01-10T06:49:33.339Z,27.30
2023-01-10T06:52:02.811Z,36.00
2023-01-10T06:54:32.006Z,33.40
2023-01-10T06:57:01.441Z,27.88
2023-01-10T06:59:31.923Z,28.13
2023-01-10T07:02:01.531Z,29.08
2023-01-10T07:04:30.814Z,30.80
2023-01-10T07:07:00.243Z,31.70
2023-01-10T07:09:30.007Z,28.77
2023-01-10T07:11:59.363Z,12.50
2023-01-10T07:14:28.480Z,11.07
2023-01-10T07:16:59.536Z,10.35
2023-01-10T07:19:28.670Z,9.95
2023-01-10T07:21:58.104Z,10.15
2023-01-10T07:24:27.195Z,8.60
2023-01-10T07:26:57.288Z,8.85
2023-01-10T07:29:26.448Z,9.70
2023-01-10T07:31:55.911Z,8.52
2023-01-10T07:34:26.388Z,9.00
2023-01-10T07:36:55.759Z,9.20
2023-01-10T07:39:25.078Z,9.48
2023-01-10T07:41:55.353Z,9.93
2023-01-10T07:44:24.560Z,9.48
2023-01-10T07:46:53.954Z,12.05
2023-01-10T07:49:23.913Z,15.13
2023-01-10T07:51:54.913Z,9.60
2023-01-10T07:54:24.083Z,9.10
2023-01-10T07:56:53.470Z,9.20
2023-01-10T07:59:22.720Z,9.07
2023-01-10T08:01:52.218Z,9.73
2023-01-10T08:04:21.349Z,8.57
2023-01-10T08:06:51.750Z,8.30
2023-01-10T08:09:22.206Z,8.52
2023-01-10T08:11:51.586Z,8.05
2023-01-10T08:14:20.940Z,7.68
2023-01-10T08:16:50.401Z,8.55
2023-01-10T08:19:19.475Z,10.25
2023-01-10T08:21:48.993Z,8.80
2023-01-10T08:24:18.201Z,10.10
2023-01-10T08:26:48.941Z,11.35
2023-01-10T08:29:18.337Z,12.35
2023-01-10T08:31:49.149Z,9.70
2023-01-10T08:34:18.626Z,10.23
2023-01-10T08:36:51.142Z,9.77
2023-01-10T08:39:22.397Z,8.88
2023-01-10T08:41:53.513Z,11.57
2023-01-10T08:44:22.783Z,11.00
2023-01-10T08:46:52.392Z,10.75
2023-01-10T08:49:21.680Z,12.73
2023-01-10T08:51:51.313Z,12.13
2023-01-10T08:54:20.573Z,11.18
2023-01-10T08:56:50.051Z,10.82
2023-01-10T08:59:20.795Z,8.93
2023-01-10T09:01:50.365Z,9.43
2023-01-10T09:04:19.614Z,8.45
2023-01-10T09:06:49.163Z,7.97
2023-01-10T09:09:18.578Z,8.48
2023-01-10T09:11:48.091Z,9.07
2023-01-10T09:14:17.471Z,8.80
2023-01-10T09:16:51.730Z,10.00
2023-01-10T09:19:20.912Z,9.98
2023-01-10T09:21:50.351Z,11.20
2023-01-10T09:24:20.072Z,11.13
2023-01-10T09:26:49.606Z,11.60
2023-01-10T09:29:18.848Z,12.30
2023-01-10T09:31:49.746Z,12.15
2023-01-10T09:34:18.826Z,11.05
2023-01-10T09:36:48.209Z,10.15
2023-01-10T09:39:17.352Z,9.30
2023-01-10T09:42:07.161Z,9.43
2023-01-10T09:44:45.851Z,9.90
2023-01-10T09:47:25.917Z,8.35
2023-01-10T09:50:07.592Z,8.55
2023-01-10T09:52:43.664Z,8.57
2023-01-10T09:55:21.788Z,8.75
2023-01-10T09:57:53.024Z,8.77
2023-01-10T10:00:28.974Z,7.43
2023-01-10T10:03:00.020Z,8.15
2023-01-10T10:05:30.042Z,8.30
2023-01-10T10:08:02.456Z,8.02
2023-01-10T10:10:40.323Z,7.75
2023-01-10T10:13:27.442Z,7.00
2023-01-10T10:16:08.864Z,6.63
2023-01-10T10:18:51.977Z,7.95
2023-01-10T10:21:28.635Z,7.70
2023-01-10T10:24:26.959Z,7.68
2023-01-10T10:27:00.539Z,7.75
2023-01-10T10:29:53.841Z,8.52
2023-01-10T10:32:39.747Z,7.18
2023-01-10T10:35:18.219Z,8.25
2023-01-10T10:37:51.397Z,7.50
2023-01-10T10:40:23.430Z,7.90
2023-01-10T10:42:54.834Z,7.30
2023-01-10T10:45:30.350Z,8.20
2023-01-10T10:48:05.406Z,8.65
2023-01-10T10:50:41.978Z,7.25
2023-01-10T10:53:12.507Z,6.88
2023-01-10T10:55:42.295Z,8.40
2023-01-10T10:58:15.379Z,8.40
2023-01-10T11:00:44.877Z,8.90
2023-01-10T11:03:33.409Z,8.07
2023-01-10T11:06:04.757Z,9.45
2023-01-10T11:08:37.429Z,8.93
2023-01-10T11:11:16.930Z,9.55
2023-01-10T11:13:50.017Z,9.90
2023-01-10T11:16:31.912Z,8.88
2023-01-10T11:19:22.727Z,9.38
2023-01-10T11:21:56.632Z,10.07
2023-01-10T11:24:29.936Z,9.57
2023-01-10T11:27:02.900Z,9.82
2023-01-10T11:29:41.266Z,9.90
2023-01-10T11:32:15.256Z,8.35
2023-01-10T11:34:53.805Z,7.20
2023-01-10T11:37:29.395Z,8.00
2023-01-10T11:42:49.079Z,8.82
2023-01-10T11:45:31.893Z,7.13
2023-01-10T11:48:09.076Z,7.68
2023-01-10T11:50:42.953Z,7.40
2023-01-10T11:53:39.544Z,7.45
2023-01-10T11:56:11.295Z,6.97
2023-01-10T11:58:42.090Z,7.35
2023-01-10T12:01:30.436Z,6.80
2023-01-10T12:04:00.673Z,7.13
2023-01-10T12:06:30.640Z,6.28
2023-01-10T12:09:01.551Z,6.80
2023-01-10T12:11:33.179Z,7.28
2023-01-10T12:14:03.719Z,6.10
2023-01-10T12:16:34.331Z,7.07
2023-01-10T12:19:06.733Z,6.50
2023-01-10T12:21:39.796Z,6.78
2023-01-10T12:24:17.123Z,7.18
2023-01-10T12:26:47.672Z,7.07
2023-01-10T12:29:20.908Z,7.22
2023-01-10T12:31:51.975Z,7.93
2023-01-10T12:34:24.580Z,7.60
2023-01-10T12:37:02.369Z,12.02
2023-01-10T12:39:35.955Z,11.20
2023-01-10T12:42:35.261Z,13.57
2023-01-10T12:45:10.216Z,8.65
2023-01-10T12:47:49.482Z,9.63
2023-01-10T12:50:25.125Z,8.75
2023-01-10T12:53:00.846Z,8.48
2023-01-10T12:55:36.575Z,8.15
2023-01-10T12:58:07.209Z,8.80
2023-01-10T13:00:48.331Z,8.30
2023-01-10T13:03:22.551Z,9.15
2023-01-10T13:05:53.226Z,8.80
2023-01-10T13:08:26.817Z,9.23
2023-01-10T13:11:00.108Z,9.38
2023-01-10T13:13:35.625Z,9.45
2023-01-10T13:16:30.352Z,9.10
2023-01-10T13:19:06.663Z,10.93
2023-01-10T13:21:36.954Z,10.50
2023-01-10T13:24:08.808Z,10.93
2023-01-10T13:26:53.854Z,10.23
2023-01-10T13:29:24.973Z,10.95
2023-01-10T13:31:58.201Z,10.82
2023-01-10T13:34:33.410Z,12.50
2023-01-10T13:37:05.534Z,10.98
2023-01-10T13:39:38.985Z,12.82
2023-01-10T13:42:57.678Z,13.82
2023-01-10T13:45:29.509Z,15.60
2023-01-10T13:48:01.061Z,15.68
2023-01-10T13:50:53.633Z,15.70
2023-01-10T13:53:57.338Z,15.77
2023-01-10T13:56:38.102Z,18.73
2023-01-10T13:59:31.785Z,18.85
2023-01-10T14:02:20.256Z,18.05
2023-01-10T14:04:54.006Z,17.30
2023-01-10T14:07:29.570Z,18.10
2023-01-10T14:10:05.195Z,18.30
2023-01-10T14:12:39.645Z,17.85
2023-01-10T14:15:25.992Z,17.75
2023-01-10T14:18:02.392Z,17.55
2023-01-10T14:20:34.407Z,18.75
2023-01-10T14:23:07.685Z,19.42
2023-01-10T14:25:39.218Z,18.48
2023-01-10T14:28:22.261Z,19.58
2023-01-10T14:31:02.908Z,20.70
2023-01-10T14:33:33.642Z,18.35
2023-01-10T14:36:09.810Z,20.23
2023-01-10T14:38:40.441Z,20.05
2023-01-10T14:41:18.757Z,17.77
2023-01-10T14:43:54.244Z,17.67
2023-01-10T14:46:31.309Z,18.08
2023-01-10T14:49:01.268Z,17.65
2023-01-10T14:51:31.675Z,17.17
2023-01-10T14:54:03.590Z,17.52
2023-01-10T14:56:39.643Z,16.25
2023-01-10T14:59:29.253Z,16.05
2023-01-10T15:02:02.071Z,15.30
2023-01-10T15:04:33.503Z,23.08
2023-01-10T15:07:10.933Z,23.40
2023-01-10T15:09:40.255Z,18.38
2023-01-10T15:12:13.605Z,19.23
2023-01-10T15:14:43.316Z,17.42
2023-01-10T15:17:20.606Z,16.75
2023-01-10T15:19:53.598Z,14.35
2023-01-10T15:22:32.401Z,14.23
2023-01-10T15:25:03.730Z,13.98
2023-01-10T15:27:33.706Z,13.98
2023-01-10T15:30:08.529Z,14.25
2023-01-10T15:32:41.403Z,14.07
2023-01-10T15:35:20.280Z,12.82
2023-01-10T15:37:54.923Z,13.80
2023-01-10T15:40:26.642Z,14.02
2023-01-10T15:43:13.869Z,11.82
2023-01-10T15:45:44.984Z,12.63
2023-01-10T15:48:30.847Z,14.45
2023-01-10T15:51:03.871Z,12.77
2023-01-10T15:53:57.468Z,16.92
2023-01-10T15:56:31.162Z,14.70
2023-01-10T15:59:02.903Z,15.98
2023-01-10T16:01:34.371Z,16.27
2023-01-10T16:04:11.946Z,21.45
2023-01-10T16:06:42.679Z,14.00
2023-01-10T16:09:21.149Z,14.45
2023-01-10T16:12:10.020Z,14.02
2023-01-10T16:14:39.614Z,15.45
2023-01-10T16:17:08.814Z,15.70
2023-01-10T16:19:39.720Z,30.05
2023-01-10T16:22:08.955Z,29.60
2023-01-10T16:24:43.745Z,21.60
2023-01-10T16:27:13.195Z,24.27
2023-01-10T16:29:44.531Z,22.48
2023-01-10T16:32:15.901Z,39.35
2023-01-10T16:34:47.845Z,19.75
2023-01-10T16:37:17.028Z,16.95
2023-01-10T16:39:46.406Z,17.48
2023-01-10T16:42:32.978Z,16.48
2023-01-10T16:45:02.558Z,15.27
2023-01-10T16:47:31.814Z,15.50
2023-01-10T16:50:02.644Z,16.10
2023-01-10T16:52:31.707Z,18.98
2023-01-10T16:55:03.114Z,16.95
2023-01-10T16:57:32.266Z,16.83
2023-01-10T17:00:01.709Z,21.75
2023-01-10T17:02:31.151Z,19.30
2023-01-10T17:05:02.054Z,18.27
2023-01-10T17:07:31.261Z,17.60
2023-01-10T17:10:00.767Z,15.82
2023-01-10T17:12:34.878Z,17.55
2023-01-10T17:15:06.725Z,18.83
2023-01-10T17:17:36.036Z,17.67
2023-01-10T17:20:07.829Z,19.08
2023-01-10T17:22:36.941Z,16.75
2023-01-10T17:25:07.358Z,17.38
2023-01-10T17:27:36.587Z,35.40
2023-01-10T17:30:06.557Z,30.45
2023-01-10T17:32:36.191Z,17.52
2023-01-10T17:35:08.434Z,16.95
2023-01-10T17:37:37.742Z,17.88
2023-01-10T17:40:08.549Z,16.35
2023-01-10T17:42:37.621Z,15.05
2023-01-10T17:45:07.854Z,14.38
2023-01-10T17:47:36.989Z,13.27
2023-01-10T17:50:08.246Z,16.75
2023-01-10T17:52:37.435Z,16.08
2023-01-10T17:55:07.841Z,16.05
2023-01-10T17:57:39.264Z,14.85
2023-01-10T18:00:10.174Z,15.20
2023-01-10T18:02:39.468Z,15.73
2023-01-10T18:05:11.116Z,15.55
2023-01-10T18:07:40.705Z,15.43
2023-01-10T18:10:11.447Z,18.10
2023-01-10T18:12:40.737Z,19.45
2023-01-10T18:15:11.231Z,20.52
2023-01-10T18:17:40.391Z,19.75
2023-01-10T18:20:13.084Z,19.75
2023-01-10T18:22:59.901Z,17.92
2023-01-10T18:25:29.579Z,17.35
2023-01-10T18:28:00.322Z,17.00
2023-01-10T18:30:29.762Z,16.88
2023-01-10T18:32:59.084Z,17.88
2023-01-10T18:35:30.445Z,18.00
2023-01-10T18:38:00.541Z,17.92
2023-01-10T18:40:30.161Z,16.80
2023-01-10T18:42:59.572Z,16.20
2023-01-10T18:45:30.592Z,16.83
2023-01-10T18:47:59.833Z,20.33
2023-01-10T18:50:30.706Z,17.83
2023-01-10T18:53:01.290Z,16.70
2023-01-10T18:55:30.932Z,15.55
2023-01-10T18:58:00.192Z,14.70
2023-01-10T19:00:29.740Z,15.73
2023-01-10T19:02:59.925Z,16.58
2023-01-10T19:05:30.875Z,14.13
2023-01-10T19:08:00.436Z,20.08
2023-01-10T19:10:34.740Z,20.58
2023-01-10T19:13:14.237Z,20.40
2023-01-10T19:15:43.878Z,17.17
2023-01-10T19:18:12.947Z,21.92
2023-01-10T19:20:44.437Z,21.42
2023-01-10T19:23:13.687Z,22.10
2023-01-10T19:25:43.137Z,22.52
2023-01-10T19:28:12.370Z,19.70
2023-01-10T19:30:43.316Z,18.92
2023-01-10T19:33:12.647Z,18.50
2023-01-10T19:35:43.569Z,18.95
2023-01-10T19:38:13.084Z,17.20
2023-01-10T19:40:42.902Z,17.25
2023-01-10T19:43:14.972Z,17.50
2023-01-10T19:45:44.709Z,17.20
2023-01-10T19:48:14.057Z,15.35
2023-01-10T19:50:45.002Z,42.05
2023-01-10T19:53:14.807Z,86.15
2023-01-10T19:55:44.392Z,71.38
2023-01-10T19:58:13.514Z,43.78
2023-01-10T20:00:43.086Z,51.30
2023-01-10T20:03:12.399Z,39.50
2023-01-10T20:05:45.817Z,54.10
2023-01-10T20:08:15.075Z,50.53
2023-01-10T20:10:44.518Z,51.83
2023-01-10T20:13:13.922Z,49.65
2023-01-10T20:15:45.279Z,52.10
2023-01-10T20:18:14.711Z,56.95
2023-01-10T20:20:46.563Z,54.95
2023-01-10T20:23:17.212Z,56.00
2023-01-10T20:25:56.489Z,57.40
2023-01-10T20:28:26.550Z,57.60
2023-01-10T20:30:57.333Z,53.17
2023-01-10T20:33:27.188Z,50.55
2023-01-10T20:36:03.681Z,49.40
2023-01-10T20:38:34.816Z,49.42
2023-01-10T20:41:06.021Z,47.58
2023-01-10T20:43:35.559Z,47.65
2023-01-10T20:46:10.952Z,44.05
2023-01-10T20:48:41.893Z,42.95
2023-01-10T20:51:16.050Z,38.17
2023-01-10T20:53:45.291Z,39.47
2023-01-10T20:56:17.088Z,38.13
2023-01-10T20:58:46.441Z,40.17
2023-01-10T21:01:28.649Z,39.58
2023-01-10T21:06:33.891Z,34.90
2023-01-10T21:09:03.460Z,36.00
2023-01-10T21:11:47.523Z,34.53
2023-01-10T21:14:22.755Z,29.73
2023-01-10T21:16:52.255Z,26.08
2023-01-10T21:19:21.455Z,22.33
2023-01-10T21:21:52.584Z,15.65
2023-01-10T21:24:22.983Z,12.65
2023-01-10T21:26:52.430Z,11.52
2023-01-10T21:29:21.674Z,10.85
2023-01-10T21:31:53.920Z,12.23
2023-01-10T21:34:23.188Z,11.65
2023-01-10T21:36:54.355Z,13.77
2023-01-10T21:39:23.600Z,14.52
2023-01-10T21:42:22.258Z,14.65
2023-01-10T21:44:51.420Z,17.08
2023-01-10T21:47:20.785Z,16.85
2023-01-10T21:49:49.922Z,15.88
2023-01-10T21:52:20.840Z,15.77
2023-01-10T21:54:50.124Z,16.33
2023-01-10T21:57:23.510Z,14.93
2023-01-10T21:59:53.339Z,18.27
2023-01-10T22:02:24.898Z,15.15
2023-01-10T22:04:55.410Z,11.95
2023-01-10T22:07:28.197Z,13.05
2023-01-10T22:09:57.663Z,12.18
2023-01-10T22:12:27.880Z,12.00
2023-01-10T22:14:57.161Z,10.70
2023-01-10T22:17:26.704Z,12.23
2023-01-10T22:19:55.925Z,11.13
2023-01-10T22:22:26.895Z,12.65
2023-01-10T22:24:56.035Z,11.52
2023-01-10T22:27:25.468Z,11.63
2023-01-10T22:29:55.273Z,10.18
2023-01-10T22:32:24.713Z,19.42
2023-01-10T22:34:53.831Z,14.85
2023-01-10T22:37:23.396Z,10.57
2023-01-10T22:39:53.891Z,11.13
2023-01-10T22:42:23.266Z,11.13
2023-01-10T22:44:52.452Z,11.45
2023-01-10T22:47:21.928Z,12.57
2023-01-10T22:49:51.002Z,10.95
2023-01-10T22:52:20.415Z,11.82
2023-01-10T22:54:49.605Z,11.35
2023-01-10T22:57:20.438Z,11.00
2023-01-10T22:59:49.640Z,12.10
2023-01-10T23:02:19.169Z,12.35
2023-01-10T23:04:48.369Z,13.98
2023-01-10T23:07:17.756Z,11.43
2023-01-10T23:09:46.859Z,10.43
2023-01-10T23:12:17.060Z,9.27
2023-01-10T23:14:47.639Z,10.40
2023-01-10T23:17:17.075Z,10.10
2023-01-10T23:19:46.243Z,12.02
2023-01-10T23:22:16.108Z,10.40
2023-01-10T23:24:45.120Z,9.98
2023-01-10T23:27:14.459Z,12.73
2023-01-10T23:29:43.650Z,12.48
2023-01-10T23:32:14.399Z,10.75
2023-01-10T23:34:43.448Z,12.55
2023-01-10T23:37:12.964Z,10.43
2023-01-10T23:39:42.134Z,12.40
2023-01-10T23:42:11.681Z,10.15
2023-01-10T23:44:41.043Z,10.20
2023-01-10T23:47:10.532Z,10.20
2023-01-10T23:49:41.113Z,9.23
2023-01-10T23:52:10.568Z,8.25
2023-01-10T23:54:39.621Z,8.95
2023-01-10T23:57:09.024Z,12.13
2023-01-10T23:59:38.169Z,13.88
